sensor_id;sensor_type;location;lat;lon;timestamp;temperature;humidity
8633;DHT22;4354;49.832;10.746;2023-07-29T00:01:33;17.40;99.90
8633;DHT22;4354;49.832;10.746;2023-07-29T00:04:00;17.30;99.90
8633;DHT22;4354;49.832;10.746;2023-07-29T00:06:27;17.30;99.90
8633;DHT22;4354;49.832;10.746;2023-07-29T00:08:54;17.30;99.90
8633;DHT22;4354;49.832;10.746;2023-07-29T00:11:20;17.30;99.90
8633;DHT22;4354;49.832;10.746;2023-07-29T00:13:47;17.20;99.90
8633;DHT22;4354;49.832;10.746;2023-07-29T00:16:16;17.20;99.90
8633;DHT22;4354;49.832;10.746;2023-07-29T00:18:44;17.20;99.90
8633;DHT22;4354;49.832;10.746;2023-07-29T00:21:11;17.20;99.90
8633;DHT22;4354;49.832;10.746;2023-07-29T00:23:38;17.20;99.90
8633;DHT22;4354;49.832;10.746;2023-07-29T00:26:04;17.20;99.90
8633;DHT22;4354;49.832;10.746;2023-07-29T00:28:31;17.20;99.90
8633;DHT22;4354;49.832;10.746;2023-07-29T00:30:58;17.20;99.90
8633;DHT22;4354;49.832;10.746;2023-07-29T00:33:25;17.20;99.90
8633;DHT22;4354;49.832;10.746;2023-07-29T00:35:53;17.20;99.90
8633;DHT22;4354;49.832;10.746;2023-07-29T00:38:19;17.20;99.90
8633;DHT22;4354;49.832;10.746;2023-07-29T00:40:46;17.20;99.90
8633;DHT22;4354;49.832;10.746;2023-07-29T00:43:13;17.20;99.90
8633;DHT22;4354;49.832;10.746;2023-07-29T00:45:41;17.20;99.90
8633;DHT22;4354;49.832;10.746;2023-07-29T00:48:09;17.10;99.90
8633;DHT22;4354;49.832;10.746;2023-07-29T00:50:37;17.10;99.90
8633;DHT22;4354;49.832;10.746;2023-07-29T00:53:04;17.10;99.90
8633;DHT22;4354;49.832;10.746;2023-07-29T00:55:31;17.00;99.90
8633;DHT22;4354;49.832;10.746;2023-07-29T00:57:58;17.00;99.90
8633;DHT22;4354;49.832;10.746;2023-07-29T01:00:25;17.00;99.90
8633;DHT22;4354;49.832;10.746;2023-07-29T01:02:52;17.00;99.90
8633;DHT22;4354;49.832;10.746;2023-07-29T01:05:21;17.00;99.90
8633;DHT22;4354;49.832;10.746;2023-07-29T01:08:12;17.00;99.90
8633;DHT22;4354;49.832;10.746;2023-07-29T01:16:29;16.90;99.90
8633;DHT22;4354;49.832;10.746;2023-07-29T01:18:58;16.90;99.90
8633;DHT22;4354;49.832;10.746;2023-07-29T01:21:31;16.90;99.90
8633;DHT22;4354;49.832;10.746;2023-07-29T01:23:58;16.90;99.90
8633;DHT22;4354;49.832;10.746;2023-07-29T01:26:26;16.90;99.90
8633;DHT22;4354;49.832;10.746;2023-07-29T01:28:54;16.90;99.90
8633;DHT22;4354;49.832;10.746;2023-07-29T01:31:35;16.90;99.90
8633;DHT22;4354;49.832;10.746;2023-07-29T01:34:21;16.90;99.90
8633;DHT22;4354;49.832;10.746;2023-07-29T01:36:50;16.90;99.90
8633;DHT22;4354;49.832;10.746;2023-07-29T01:39:21;16.90;99.90
8633;DHT22;4354;49.832;10.746;2023-07-29T01:41:49;16.90;99.90
8633;DHT22;4354;49.832;10.746;2023-07-29T01:44:17;17.00;99.90
8633;DHT22;4354;49.832;10.746;2023-07-29T01:46:45;17.00;99.90
8633;DHT22;4354;49.832;10.746;2023-07-29T01:49:12;17.00;99.90
8633;DHT22;4354;49.832;10.746;2023-07-29T01:51:38;17.00;99.90
8633;DHT22;4354;49.832;10.746;2023-07-29T01:54:05;17.10;99.90
8633;DHT22;4354;49.832;10.746;2023-07-29T01:56:32;17.10;99.90
8633;DHT22;4354;49.832;10.746;2023-07-29T01:58:59;17.00;99.90
8633;DHT22;4354;49.832;10.746;2023-07-29T02:01:26;17.00;99.90
8633;DHT22;4354;49.832;10.746;2023-07-29T02:03:53;17.00;99.90
8633;DHT22;4354;49.832;10.746;2023-07-29T02:06:22;17.00;99.90
8633;DHT22;4354;49.832;10.746;2023-07-29T02:08:49;16.90;99.90
8633;DHT22;4354;49.832;10.746;2023-07-29T02:11:16;16.90;99.90
8633;DHT22;4354;49.832;10.746;2023-07-29T02:13:43;16.90;99.90
8633;DHT22;4354;49.832;10.746;2023-07-29T02:16:10;16.80;99.90
8633;DHT22;4354;49.832;10.746;2023-07-29T02:18:37;16.80;99.90
8633;DHT22;4354;49.832;10.746;2023-07-29T02:21:04;16.70;99.90
8633;DHT22;4354;49.832;10.746;2023-07-29T02:23:31;16.70;99.90
8633;DHT22;4354;49.832;10.746;2023-07-29T02:25:57;16.60;99.90
8633;DHT22;4354;49.832;10.746;2023-07-29T02:28:24;16.60;99.90
8633;DHT22;4354;49.832;10.746;2023-07-29T02:31:12;16.60;99.90
8633;DHT22;4354;49.832;10.746;2023-07-29T02:33:39;16.50;99.90
8633;DHT22;4354;49.832;10.746;2023-07-29T02:36:05;16.50;99.90
8633;DHT22;4354;49.832;10.746;2023-07-29T02:38:32;16.40;99.90
8633;DHT22;4354;49.832;10.746;2023-07-29T02:40:59;16.40;99.90
8633;DHT22;4354;49.832;10.746;2023-07-29T02:43:26;16.30;99.90
8633;DHT22;4354;49.832;10.746;2023-07-29T02:45:52;16.20;99.90
8633;DHT22;4354;49.832;10.746;2023-07-29T02:48:19;16.30;99.90
8633;DHT22;4354;49.832;10.746;2023-07-29T02:50:46;16.10;99.90
8633;DHT22;4354;49.832;10.746;2023-07-29T02:53:13;16.10;99.90
8633;DHT22;4354;49.832;10.746;2023-07-29T02:55:40;16.10;99.90
8633;DHT22;4354;49.832;10.746;2023-07-29T02:58:07;16.00;99.90
8633;DHT22;4354;49.832;10.746;2023-07-29T03:00:34;16.00;99.90
8633;DHT22;4354;49.832;10.746;2023-07-29T03:03:02;15.90;99.90
8633;DHT22;4354;49.832;10.746;2023-07-29T03:05:29;15.90;99.90
8633;DHT22;4354;49.832;10.746;2023-07-29T03:07:57;15.90;99.90
8633;DHT22;4354;49.832;10.746;2023-07-29T03:10:24;15.80;99.90
8633;DHT22;4354;49.832;10.746;2023-07-29T03:12:50;15.80;99.90
8633;DHT22;4354;49.832;10.746;2023-07-29T03:15:17;15.80;99.90
8633;DHT22;4354;49.832;10.746;2023-07-29T03:17:44;15.80;99.90
8633;DHT22;4354;49.832;10.746;2023-07-29T03:20:11;15.90;99.90
8633;DHT22;4354;49.832;10.746;2023-07-29T03:22:38;15.90;99.90
8633;DHT22;4354;49.832;10.746;2023-07-29T03:25:05;15.90;99.90
8633;DHT22;4354;49.832;10.746;2023-07-29T03:27:32;15.90;99.90
8633;DHT22;4354;49.832;10.746;2023-07-29T03:30:00;15.90;99.90
8633;DHT22;4354;49.832;10.746;2023-07-29T03:32:26;15.90;99.90
8633;DHT22;4354;49.832;10.746;2023-07-29T03:34:53;16.00;99.90
8633;DHT22;4354;49.832;10.746;2023-07-29T03:37:20;16.00;99.90
8633;DHT22;4354;49.832;10.746;2023-07-29T03:39:47;16.10;99.90
8633;DHT22;4354;49.832;10.746;2023-07-29T03:42:14;16.10;99.90
8633;DHT22;4354;49.832;10.746;2023-07-29T03:44:41;16.20;99.90
8633;DHT22;4354;49.832;10.746;2023-07-29T03:47:08;16.20;99.90
8633;DHT22;4354;49.832;10.746;2023-07-29T03:49:37;16.20;99.90
8633;DHT22;4354;49.832;10.746;2023-07-29T03:52:04;16.30;99.90
8633;DHT22;4354;49.832;10.746;2023-07-29T03:54:31;16.30;99.90
8633;DHT22;4354;49.832;10.746;2023-07-29T03:56:58;16.30;99.90
8633;DHT22;4354;49.832;10.746;2023-07-29T03:59:25;16.20;99.90
8633;DHT22;4354;49.832;10.746;2023-07-29T04:01:51;16.40;99.90
8633;DHT22;4354;49.832;10.746;2023-07-29T04:04:18;16.40;99.90
8633;DHT22;4354;49.832;10.746;2023-07-29T04:06:45;16.40;99.90
8633;DHT22;4354;49.832;10.746;2023-07-29T04:09:12;16.40;99.90
8633;DHT22;4354;49.832;10.746;2023-07-29T04:11:39;16.40;99.90
8633;DHT22;4354;49.832;10.746;2023-07-29T04:14:06;16.50;99.90
8633;DHT22;4354;49.832;10.746;2023-07-29T04:16:32;16.60;99.90
8633;DHT22;4354;49.832;10.746;2023-07-29T04:18:59;16.80;99.90
8633;DHT22;4354;49.832;10.746;2023-07-29T04:21:26;16.90;99.90
8633;DHT22;4354;49.832;10.746;2023-07-29T04:23:53;17.10;99.90
8633;DHT22;4354;49.832;10.746;2023-07-29T04:26:20;17.10;99.90
8633;DHT22;4354;49.832;10.746;2023-07-29T04:28:46;17.20;99.90
8633;DHT22;4354;49.832;10.746;2023-07-29T04:31:13;17.20;99.90
8633;DHT22;4354;49.832;10.746;2023-07-29T04:33:40;17.20;99.90
8633;DHT22;4354;49.832;10.746;2023-07-29T04:36:07;17.20;99.90
8633;DHT22;4354;49.832;10.746;2023-07-29T04:38:33;17.20;99.90
8633;DHT22;4354;49.832;10.746;2023-07-29T04:41:01;17.00;99.90
8633;DHT22;4354;49.832;10.746;2023-07-29T04:43:31;17.00;99.90
8633;DHT22;4354;49.832;10.746;2023-07-29T04:45:58;17.00;99.90
8633;DHT22;4354;49.832;10.746;2023-07-29T04:48:25;17.10;99.90
8633;DHT22;4354;49.832;10.746;2023-07-29T04:50:52;17.00;99.90
8633;DHT22;4354;49.832;10.746;2023-07-29T04:53:18;17.10;99.90
8633;DHT22;4354;49.832;10.746;2023-07-29T04:55:46;17.10;99.90
8633;DHT22;4354;49.832;10.746;2023-07-29T04:58:13;17.10;99.90
8633;DHT22;4354;49.832;10.746;2023-07-29T05:00:39;17.10;99.90
8633;DHT22;4354;49.832;10.746;2023-07-29T05:03:06;17.10;99.90
8633;DHT22;4354;49.832;10.746;2023-07-29T05:05:33;17.10;99.90
8633;DHT22;4354;49.832;10.746;2023-07-29T05:08:00;17.20;99.90
8633;DHT22;4354;49.832;10.746;2023-07-29T05:10:27;17.20;99.90
8633;DHT22;4354;49.832;10.746;2023-07-29T05:12:53;17.30;99.90
8633;DHT22;4354;49.832;10.746;2023-07-29T05:15:20;17.30;99.90
8633;DHT22;4354;49.832;10.746;2023-07-29T05:17:47;17.30;99.90
8633;DHT22;4354;49.832;10.746;2023-07-29T05:20:14;17.30;99.90
8633;DHT22;4354;49.832;10.746;2023-07-29T05:22:41;17.40;99.90
8633;DHT22;4354;49.832;10.746;2023-07-29T05:25:08;17.30;99.90
8633;DHT22;4354;49.832;10.746;2023-07-29T05:27:35;17.30;99.90
8633;DHT22;4354;49.832;10.746;2023-07-29T05:30:02;17.40;99.90
8633;DHT22;4354;49.832;10.746;2023-07-29T05:32:29;17.40;99.90
8633;DHT22;4354;49.832;10.746;2023-07-29T05:34:56;17.40;99.90
8633;DHT22;4354;49.832;10.746;2023-07-29T05:37:23;17.40;99.90
8633;DHT22;4354;49.832;10.746;2023-07-29T05:39:49;17.50;99.90
8633;DHT22;4354;49.832;10.746;2023-07-29T05:42:16;17.60;99.90
8633;DHT22;4354;49.832;10.746;2023-07-29T05:44:43;17.70;99.90
8633;DHT22;4354;49.832;10.746;2023-07-29T05:47:10;17.80;99.90
8633;DHT22;4354;49.832;10.746;2023-07-29T05:49:38;17.90;99.90
8633;DHT22;4354;49.832;10.746;2023-07-29T05:52:05;18.00;99.90
8633;DHT22;4354;49.832;10.746;2023-07-29T05:54:32;18.00;99.90
8633;DHT22;4354;49.832;10.746;2023-07-29T05:56:59;18.00;99.90
8633;DHT22;4354;49.832;10.746;2023-07-29T05:59:26;18.00;99.90
8633;DHT22;4354;49.832;10.746;2023-07-29T06:01:56;18.00;99.90
8633;DHT22;4354;49.832;10.746;2023-07-29T06:04:23;18.00;99.90
8633;DHT22;4354;49.832;10.746;2023-07-29T06:06:49;18.00;99.90
8633;DHT22;4354;49.832;10.746;2023-07-29T06:09:16;18.00;99.90
8633;DHT22;4354;49.832;10.746;2023-07-29T06:11:43;17.80;99.90
8633;DHT22;4354;49.832;10.746;2023-07-29T06:14:10;17.90;99.90
8633;DHT22;4354;49.832;10.746;2023-07-29T06:16:37;17.80;99.90
8633;DHT22;4354;49.832;10.746;2023-07-29T06:19:04;17.80;99.90
8633;DHT22;4354;49.832;10.746;2023-07-29T06:21:31;17.80;99.90
8633;DHT22;4354;49.832;10.746;2023-07-29T06:23:58;17.80;99.90
8633;DHT22;4354;49.832;10.746;2023-07-29T06:26:24;17.80;99.90
8633;DHT22;4354;49.832;10.746;2023-07-29T06:28:51;17.80;99.90
8633;DHT22;4354;49.832;10.746;2023-07-29T06:31:18;17.80;99.90
8633;DHT22;4354;49.832;10.746;2023-07-29T06:33:45;17.90;99.90
8633;DHT22;4354;49.832;10.746;2023-07-29T06:36:12;18.00;99.90
8633;DHT22;4354;49.832;10.746;2023-07-29T06:38:39;18.10;99.90
8633;DHT22;4354;49.832;10.746;2023-07-29T06:41:05;18.20;99.90
8633;DHT22;4354;49.832;10.746;2023-07-29T06:43:32;18.30;99.90
8633;DHT22;4354;49.832;10.746;2023-07-29T06:45:59;18.40;99.90
8633;DHT22;4354;49.832;10.746;2023-07-29T06:48:26;18.40;99.90
8633;DHT22;4354;49.832;10.746;2023-07-29T06:50:53;18.40;99.90
8633;DHT22;4354;49.832;10.746;2023-07-29T06:53:21;18.40;99.90
8633;DHT22;4354;49.832;10.746;2023-07-29T06:55:48;18.10;99.90
8633;DHT22;4354;49.832;10.746;2023-07-29T06:58:15;18.10;99.90
8633;DHT22;4354;49.832;10.746;2023-07-29T07:00:42;18.00;99.90
8633;DHT22;4354;49.832;10.746;2023-07-29T07:03:09;18.00;99.90
8633;DHT22;4354;49.832;10.746;2023-07-29T07:05:36;18.00;99.90
8633;DHT22;4354;49.832;10.746;2023-07-29T07:08:03;18.00;99.90
8633;DHT22;4354;49.832;10.746;2023-07-29T07:10:29;18.10;99.90
8633;DHT22;4354;49.832;10.746;2023-07-29T07:12:56;18.10;99.90
8633;DHT22;4354;49.832;10.746;2023-07-29T07:15:23;18.20;99.90
8633;DHT22;4354;49.832;10.746;2023-07-29T07:17:51;18.40;99.90
8633;DHT22;4354;49.832;10.746;2023-07-29T07:20:18;18.40;99.90
8633;DHT22;4354;49.832;10.746;2023-07-29T07:22:45;18.50;99.90
8633;DHT22;4354;49.832;10.746;2023-07-29T07:25:12;18.60;99.90
8633;DHT22;4354;49.832;10.746;2023-07-29T07:27:39;18.70;99.90
8633;DHT22;4354;49.832;10.746;2023-07-29T07:30:08;18.60;99.90
8633;DHT22;4354;49.832;10.746;2023-07-29T07:32:35;18.60;99.90
8633;DHT22;4354;49.832;10.746;2023-07-29T07:35:01;18.60;99.90
8633;DHT22;4354;49.832;10.746;2023-07-29T07:37:28;18.60;99.90
8633;DHT22;4354;49.832;10.746;2023-07-29T07:39:55;18.60;99.90
8633;DHT22;4354;49.832;10.746;2023-07-29T07:42:22;18.60;99.90
8633;DHT22;4354;49.832;10.746;2023-07-29T07:44:48;18.60;99.90
8633;DHT22;4354;49.832;10.746;2023-07-29T07:47:15;18.70;99.90
8633;DHT22;4354;49.832;10.746;2023-07-29T07:49:42;18.70;99.90
8633;DHT22;4354;49.832;10.746;2023-07-29T07:52:08;18.80;99.90
8633;DHT22;4354;49.832;10.746;2023-07-29T07:54:35;18.90;99.90
8633;DHT22;4354;49.832;10.746;2023-07-29T07:57:02;18.90;99.90
8633;DHT22;4354;49.832;10.746;2023-07-29T07:59:29;18.90;99.90
8633;DHT22;4354;49.832;10.746;2023-07-29T08:01:56;18.80;99.90
8633;DHT22;4354;49.832;10.746;2023-07-29T08:04:22;18.90;99.90
8633;DHT22;4354;49.832;10.746;2023-07-29T08:06:49;18.90;99.90
8633;DHT22;4354;49.832;10.746;2023-07-29T08:09:16;18.90;99.90
8633;DHT22;4354;49.832;10.746;2023-07-29T08:11:43;19.00;99.90
8633;DHT22;4354;49.832;10.746;2023-07-29T08:14:09;19.10;99.90
8633;DHT22;4354;49.832;10.746;2023-07-29T08:16:36;19.30;99.90
8633;DHT22;4354;49.832;10.746;2023-07-29T08:19:03;19.40;99.90
8633;DHT22;4354;49.832;10.746;2023-07-29T08:21:30;19.50;99.90
8633;DHT22;4354;49.832;10.746;2023-07-29T08:23:57;19.60;99.90
8633;DHT22;4354;49.832;10.746;2023-07-29T08:26:23;19.80;99.90
8633;DHT22;4354;49.832;10.746;2023-07-29T08:28:50;19.80;96.30
8633;DHT22;4354;49.832;10.746;2023-07-29T08:31:20;19.90;99.20
8633;DHT22;4354;49.832;10.746;2023-07-29T08:33:47;19.90;98.20
8633;DHT22;4354;49.832;10.746;2023-07-29T08:36:14;20.00;94.70
8633;DHT22;4354;49.832;10.746;2023-07-29T08:38:41;20.00;99.00
8633;DHT22;4354;49.832;10.746;2023-07-29T08:41:22;20.20;99.90
8633;DHT22;4354;49.832;10.746;2023-07-29T08:44:09;20.40;99.90
8633;DHT22;4354;49.832;10.746;2023-07-29T08:46:39;20.80;98.50
8633;DHT22;4354;49.832;10.746;2023-07-29T08:49:07;21.20;51.10
8633;DHT22;4354;49.832;10.746;2023-07-29T08:51:35;21.60;1.00
8633;DHT22;4354;49.832;10.746;2023-07-29T08:54:02;21.90;1.00
8633;DHT22;4354;49.832;10.746;2023-07-29T08:56:30;22.10;1.00
8633;DHT22;4354;49.832;10.746;2023-07-29T08:58:57;22.20;1.00
8633;DHT22;4354;49.832;10.746;2023-07-29T09:01:27;22.30;1.00
8633;DHT22;4354;49.832;10.746;2023-07-29T09:03:54;22.50;1.00
8633;DHT22;4354;49.832;10.746;2023-07-29T09:06:21;22.60;1.00
8633;DHT22;4354;49.832;10.746;2023-07-29T09:08:49;22.70;1.00
8633;DHT22;4354;49.832;10.746;2023-07-29T09:11:16;22.80;1.00
8633;DHT22;4354;49.832;10.746;2023-07-29T09:13:43;22.70;1.00
8633;DHT22;4354;49.832;10.746;2023-07-29T09:16:10;22.60;1.00
8633;DHT22;4354;49.832;10.746;2023-07-29T09:18:37;22.50;1.00
8633;DHT22;4354;49.832;10.746;2023-07-29T09:21:04;22.30;1.00
8633;DHT22;4354;49.832;10.746;2023-07-29T09:23:42;22.50;1.00
8633;DHT22;4354;49.832;10.746;2023-07-29T09:28:59;22.20;1.00
8633;DHT22;4354;49.832;10.746;2023-07-29T09:31:28;21.90;1.00
8633;DHT22;4354;49.832;10.746;2023-07-29T09:34:00;21.70;1.00
8633;DHT22;4354;49.832;10.746;2023-07-29T09:36:29;21.60;1.00
8633;DHT22;4354;49.832;10.746;2023-07-29T09:38:57;21.50;1.00
8633;DHT22;4354;49.832;10.746;2023-07-29T09:41:25;21.70;1.00
8633;DHT22;4354;49.832;10.746;2023-07-29T09:43:57;21.60;1.00
8633;DHT22;4354;49.832;10.746;2023-07-29T09:46:35;21.70;1.00
8633;DHT22;4354;49.832;10.746;2023-07-29T09:49:07;22.00;1.00
8633;DHT22;4354;49.832;10.746;2023-07-29T09:51:38;23.50;1.00
8633;DHT22;4354;49.832;10.746;2023-07-29T09:54:06;24.40;1.00
8633;DHT22;4354;49.832;10.746;2023-07-29T09:56:33;24.90;99.90
8633;DHT22;4354;49.832;10.746;2023-07-29T09:59:01;25.70;1.00
8633;DHT22;4354;49.832;10.746;2023-07-29T10:03:59;27.20;1.00
8633;DHT22;4354;49.832;10.746;2023-07-29T10:19:02;30.70;99.90
8633;DHT22;4354;49.832;10.746;2023-07-29T10:21:31;36.00;99.90
8633;DHT22;4354;49.832;10.746;2023-07-29T10:24:01;36.00;99.90
8633;DHT22;4354;49.832;10.746;2023-07-29T10:26:31;35.90;99.90
8633;DHT22;4354;49.832;10.746;2023-07-29T10:29:04;35.60;99.90
8633;DHT22;4354;49.832;10.746;2023-07-29T10:31:35;35.70;99.90
8633;DHT22;4354;49.832;10.746;2023-07-29T10:34:04;36.30;99.90
8633;DHT22;4354;49.832;10.746;2023-07-29T10:36:31;36.30;99.90
8633;DHT22;4354;49.832;10.746;2023-07-29T10:38:58;35.30;98.60
8633;DHT22;4354;49.832;10.746;2023-07-29T10:41:54;33.30;95.50
8633;DHT22;4354;49.832;10.746;2023-07-29T10:47:22;32.50;99.90
8633;DHT22;4354;49.832;10.746;2023-07-29T10:49:52;32.00;98.20
8633;DHT22;4354;49.832;10.746;2023-07-29T10:55:03;30.10;99.90
8633;DHT22;4354;49.832;10.746;2023-07-29T10:57:35;30.70;98.90
8633;DHT22;4354;49.832;10.746;2023-07-29T11:00:04;31.50;97.50
8633;DHT22;4354;49.832;10.746;2023-07-29T11:02:36;31.30;95.80
8633;DHT22;4354;49.832;10.746;2023-07-29T11:05:07;31.10;95.80
8633;DHT22;4354;49.832;10.746;2023-07-29T11:07:49;31.10;96.00
8633;DHT22;4354;49.832;10.746;2023-07-29T11:10:16;31.30;92.40
8633;DHT22;4354;49.832;10.746;2023-07-29T11:12:48;31.70;91.80
8633;DHT22;4354;49.832;10.746;2023-07-29T11:15:28;31.20;90.90
8633;DHT22;4354;49.832;10.746;2023-07-29T11:17:59;30.50;91.20
8633;DHT22;4354;49.832;10.746;2023-07-29T11:20:28;29.70;90.10
8633;DHT22;4354;49.832;10.746;2023-07-29T11:22:57;28.90;91.70
8633;DHT22;4354;49.832;10.746;2023-07-29T11:25:26;27.90;91.70
8633;DHT22;4354;49.832;10.746;2023-07-29T11:27:54;27.20;97.80
8633;DHT22;4354;49.832;10.746;2023-07-29T11:30:22;26.20;99.90
8633;DHT22;4354;49.832;10.746;2023-07-29T11:32:57;25.60;99.90
8633;DHT22;4354;49.832;10.746;2023-07-29T11:35:25;25.50;1.00
8633;DHT22;4354;49.832;10.746;2023-07-29T11:37:53;25.60;1.00
8633;DHT22;4354;49.832;10.746;2023-07-29T11:40:22;25.50;99.90
8633;DHT22;4354;49.832;10.746;2023-07-29T11:42:50;25.50;1.00
8633;DHT22;4354;49.832;10.746;2023-07-29T11:45:18;25.90;1.00
8633;DHT22;4354;49.832;10.746;2023-07-29T11:47:46;27.10;1.00
8633;DHT22;4354;49.832;10.746;2023-07-29T11:50:14;28.40;99.90
8633;DHT22;4354;49.832;10.746;2023-07-29T11:52:43;28.20;99.90
8633;DHT22;4354;49.832;10.746;2023-07-29T11:55:11;28.50;99.90
8633;DHT22;4354;49.832;10.746;2023-07-29T11:57:39;28.70;99.90
8633;DHT22;4354;49.832;10.746;2023-07-29T12:00:08;29.40;99.90
8633;DHT22;4354;49.832;10.746;2023-07-29T12:02:39;29.50;99.90
8633;DHT22;4354;49.832;10.746;2023-07-29T12:05:08;29.30;99.90
8633;DHT22;4354;49.832;10.746;2023-07-29T12:07:37;30.10;99.90
8633;DHT22;4354;49.832;10.746;2023-07-29T12:10:05;30.60;99.90
8633;DHT22;4354;49.832;10.746;2023-07-29T12:12:32;30.50;99.90
8633;DHT22;4354;49.832;10.746;2023-07-29T12:14:59;30.10;99.90
8633;DHT22;4354;49.832;10.746;2023-07-29T12:17:27;29.50;99.90
8633;DHT22;4354;49.832;10.746;2023-07-29T12:19:55;28.60;99.90
8633;DHT22;4354;49.832;10.746;2023-07-29T12:22:22;27.60;99.90
8633;DHT22;4354;49.832;10.746;2023-07-29T12:24:51;26.80;99.90
8633;DHT22;4354;49.832;10.746;2023-07-29T12:27:21;26.20;99.90
8633;DHT22;4354;49.832;10.746;2023-07-29T12:29:51;26.20;99.90
8633;DHT22;4354;49.832;10.746;2023-07-29T12:32:18;27.00;99.90
8633;DHT22;4354;49.832;10.746;2023-07-29T12:34:45;27.90;99.90
8633;DHT22;4354;49.832;10.746;2023-07-29T12:37:12;28.50;99.90
8633;DHT22;4354;49.832;10.746;2023-07-29T12:39:42;28.70;99.90
8633;DHT22;4354;49.832;10.746;2023-07-29T12:42:09;29.20;99.90
8633;DHT22;4354;49.832;10.746;2023-07-29T12:44:37;29.70;99.90
8633;DHT22;4354;49.832;10.746;2023-07-29T12:47:05;30.20;99.90
8633;DHT22;4354;49.832;10.746;2023-07-29T12:49:32;30.20;99.90
8633;DHT22;4354;49.832;10.746;2023-07-29T12:52:00;30.80;99.90
8633;DHT22;4354;49.832;10.746;2023-07-29T12:54:27;30.40;99.90
8633;DHT22;4354;49.832;10.746;2023-07-29T12:56:54;30.40;99.90
8633;DHT22;4354;49.832;10.746;2023-07-29T12:59:20;30.50;99.90
8633;DHT22;4354;49.832;10.746;2023-07-29T13:01:47;30.80;99.90
8633;DHT22;4354;49.832;10.746;2023-07-29T13:04:14;31.00;99.90
8633;DHT22;4354;49.832;10.746;2023-07-29T13:06:41;30.40;99.90
8633;DHT22;4354;49.832;10.746;2023-07-29T13:09:08;29.80;99.90
8633;DHT22;4354;49.832;10.746;2023-07-29T13:11:35;29.20;99.90
8633;DHT22;4354;49.832;10.746;2023-07-29T13:14:02;28.60;99.90
8633;DHT22;4354;49.832;10.746;2023-07-29T13:16:29;28.00;99.90
8633;DHT22;4354;49.832;10.746;2023-07-29T13:18:56;27.50;99.90
8633;DHT22;4354;49.832;10.746;2023-07-29T13:21:23;27.00;99.90
8633;DHT22;4354;49.832;10.746;2023-07-29T13:23:51;26.50;99.90
8633;DHT22;4354;49.832;10.746;2023-07-29T13:26:18;26.20;99.90
8633;DHT22;4354;49.832;10.746;2023-07-29T13:28:45;25.90;99.90
8633;DHT22;4354;49.832;10.746;2023-07-29T13:31:12;25.60;99.90
8633;DHT22;4354;49.832;10.746;2023-07-29T13:33:39;25.50;99.90
8633;DHT22;4354;49.832;10.746;2023-07-29T13:36:06;25.40;99.90
8633;DHT22;4354;49.832;10.746;2023-07-29T13:38:35;25.40;99.90
8633;DHT22;4354;49.832;10.746;2023-07-29T13:41:02;25.50;99.90
8633;DHT22;4354;49.832;10.746;2023-07-29T13:43:29;25.60;99.90
8633;DHT22;4354;49.832;10.746;2023-07-29T13:45:56;25.80;99.90
8633;DHT22;4354;49.832;10.746;2023-07-29T13:48:23;25.70;99.90
8633;DHT22;4354;49.832;10.746;2023-07-29T13:50:50;25.30;99.90
8633;DHT22;4354;49.832;10.746;2023-07-29T13:53:17;24.90;99.90
8633;DHT22;4354;49.832;10.746;2023-07-29T13:55:45;24.70;1.00
8633;DHT22;4354;49.832;10.746;2023-07-29T13:58:11;24.40;1.00
8633;DHT22;4354;49.832;10.746;2023-07-29T14:00:38;24.00;1.00
8633;DHT22;4354;49.832;10.746;2023-07-29T14:03:05;23.80;99.90
8633;DHT22;4354;49.832;10.746;2023-07-29T14:05:32;23.50;11.70
8633;DHT22;4354;49.832;10.746;2023-07-29T14:07:59;23.40;99.90
8633;DHT22;4354;49.832;10.746;2023-07-29T14:10:25;23.40;13.10
8633;DHT22;4354;49.832;10.746;2023-07-29T14:12:52;23.20;8.30
8633;DHT22;4354;49.832;10.746;2023-07-29T14:15:19;23.20;1.00
8633;DHT22;4354;49.832;10.746;2023-07-29T14:17:46;23.00;1.00
8633;DHT22;4354;49.832;10.746;2023-07-29T14:20:13;23.10;1.00
8633;DHT22;4354;49.832;10.746;2023-07-29T14:22:40;23.60;1.00
8633;DHT22;4354;49.832;10.746;2023-07-29T14:25:07;24.20;1.00
8633;DHT22;4354;49.832;10.746;2023-07-29T14:27:34;24.70;1.00
8633;DHT22;4354;49.832;10.746;2023-07-29T14:30:01;25.00;1.00
8633;DHT22;4354;49.832;10.746;2023-07-29T14:32:28;25.20;99.90
8633;DHT22;4354;49.832;10.746;2023-07-29T14:34:55;25.50;99.90
8633;DHT22;4354;49.832;10.746;2023-07-29T14:37:22;25.60;99.90
8633;DHT22;4354;49.832;10.746;2023-07-29T14:39:49;25.60;99.90
8633;DHT22;4354;49.832;10.746;2023-07-29T14:42:16;25.60;99.90
8633;DHT22;4354;49.832;10.746;2023-07-29T14:44:42;25.60;99.90
8633;DHT22;4354;49.832;10.746;2023-07-29T14:47:09;25.60;99.90
8633;DHT22;4354;49.832;10.746;2023-07-29T14:49:36;25.30;99.90
8633;DHT22;4354;49.832;10.746;2023-07-29T14:52:03;25.10;99.90
8633;DHT22;4354;49.832;10.746;2023-07-29T14:54:30;25.20;99.90
8633;DHT22;4354;49.832;10.746;2023-07-29T14:56:57;25.20;99.90
8633;DHT22;4354;49.832;10.746;2023-07-29T14:59:24;25.40;99.90
8633;DHT22;4354;49.832;10.746;2023-07-29T15:01:51;25.50;99.90
8633;DHT22;4354;49.832;10.746;2023-07-29T15:04:18;25.70;99.90
8633;DHT22;4354;49.832;10.746;2023-07-29T15:06:44;25.80;99.90
8633;DHT22;4354;49.832;10.746;2023-07-29T15:09:12;25.90;99.90
8633;DHT22;4354;49.832;10.746;2023-07-29T15:11:38;25.90;99.90
8633;DHT22;4354;49.832;10.746;2023-07-29T15:14:07;25.80;99.90
8633;DHT22;4354;49.832;10.746;2023-07-29T15:16:34;25.80;99.90
8633;DHT22;4354;49.832;10.746;2023-07-29T15:19:03;25.80;99.90
8633;DHT22;4354;49.832;10.746;2023-07-29T15:21:31;25.80;99.90
8633;DHT22;4354;49.832;10.746;2023-07-29T15:24:00;25.80;99.90
8633;DHT22;4354;49.832;10.746;2023-07-29T15:26:27;25.80;99.90
8633;DHT22;4354;49.832;10.746;2023-07-29T15:28:54;25.80;99.90
8633;DHT22;4354;49.832;10.746;2023-07-29T15:31:21;25.70;99.90
8633;DHT22;4354;49.832;10.746;2023-07-29T15:33:49;25.70;99.90
8633;DHT22;4354;49.832;10.746;2023-07-29T15:36:17;25.70;99.90
8633;DHT22;4354;49.832;10.746;2023-07-29T15:38:44;25.70;99.90
8633;DHT22;4354;49.832;10.746;2023-07-29T15:41:11;25.60;99.90
8633;DHT22;4354;49.832;10.746;2023-07-29T15:43:38;25.60;99.90
8633;DHT22;4354;49.832;10.746;2023-07-29T15:46:04;25.60;99.90
8633;DHT22;4354;49.832;10.746;2023-07-29T15:48:31;25.60;99.90
8633;DHT22;4354;49.832;10.746;2023-07-29T15:50:58;25.50;99.90
8633;DHT22;4354;49.832;10.746;2023-07-29T15:53:25;25.60;99.90
8633;DHT22;4354;49.832;10.746;2023-07-29T15:55:52;25.60;99.90
8633;DHT22;4354;49.832;10.746;2023-07-29T15:58:19;25.60;99.90
8633;DHT22;4354;49.832;10.746;2023-07-29T16:00:45;25.40;99.90
8633;DHT22;4354;49.832;10.746;2023-07-29T16:03:12;25.20;99.90
8633;DHT22;4354;49.832;10.746;2023-07-29T16:05:39;24.90;99.90
8633;DHT22;4354;49.832;10.746;2023-07-29T16:08:06;24.90;99.90
8633;DHT22;4354;49.832;10.746;2023-07-29T16:10:33;25.00;99.90
8633;DHT22;4354;49.832;10.746;2023-07-29T16:12:59;25.00;99.90
8633;DHT22;4354;49.832;10.746;2023-07-29T16:15:29;24.90;99.90
8633;DHT22;4354;49.832;10.746;2023-07-29T16:17:56;25.00;99.90
8633;DHT22;4354;49.832;10.746;2023-07-29T16:20:25;24.90;99.90